Terminal Aerodrome Forecast
Issued by NWS

Home | Current Version | Previous Version | Text Only | Print | Product List | Glossary On
Versions: 1 2 3 4 5 6 7 8 9 10 11 12 13 14 15 16 17 18 19 20 21 22 23 24 25 26 27 28
000
FTUS46 KMFR 021859 AAA
TAFOTH
TAF AMD
KOTH 021859Z 0219/0318 35011KT P6SM SCT005
     FM022000 36018G30KT P6SM SKC
     FM030300 36010KT P6SM OVC008
     FM030700 VRB03KT P6SM OVC006
     FM031200 VRB03KT 2SM BR OVC002=

USA.gov is the U.S. government's official web portal to all federal, state and local government web resources and services.